Time;durP1;ratioP1;P1;durP2;ratioP2;P2;SDS_P1;SDS_P2;PMS_P1;PMS_P2;Temp;Humidity;BMP_temperature;BMP_pressure;BME280_temperature;BME280_humidity;BME280_pressure;Samples;Min_cycle;Max_cycle;Signal;HPM_P1;HPM_P2
2022/07/07 00:02:20;;;;;;;10.23;7.03;;;;;;;19.09;67.70;101966.09;5034657;28;20041;-67
2022/07/07 00:04:45;;;;;;;9.80;6.85;;;;;;;19.05;67.59;101970.59;5034446;28;20026;-66
2022/07/07 00:07:11;;;;;;;10.05;6.90;;;;;;;19.01;68.05;101959.03;5033089;28;20042;-66
2022/07/07 00:09:37;;;;;;;9.98;6.60;;;;;;;19.01;67.56;101963.47;5034440;28;20065;-65
2022/07/07 00:12:03;;;;;;;9.93;6.68;;;;;;;19.00;68.16;101962.59;5034493;28;20033;-65
2022/07/07 00:14:28;;;;;;;10.02;6.32;;;;;;;19.04;67.87;101960.78;5034431;28;20434;-66
2022/07/07 00:16:54;;;;;;;11.73;6.38;;;;;;;19.02;67.12;101959.91;5034289;28;20090;-66
2022/07/07 00:19:19;;;;;;;12.25;6.05;;;;;;;19.07;67.07;101955.41;5032923;28;20021;-67
2022/07/07 00:21:45;;;;;;;9.43;6.13;;;;;;;19.03;67.85;101950.97;5034332;28;20118;-65
2022/07/07 00:24:10;;;;;;;11.48;6.20;;;;;;;19.08;67.29;101953.63;5034575;28;20036;-66
2022/07/07 00:26:36;;;;;;;9.20;6.25;;;;;;;19.01;67.80;101955.44;5033935;28;20164;-65
2022/07/07 00:29:02;;;;;;;11.20;6.25;;;;;;;18.96;68.13;101943.88;5034079;28;20037;-66
2022/07/07 00:31:27;;;;;;;10.02;6.20;;;;;;;18.95;68.10;101934.06;5034122;28;20037;-65
2022/07/07 00:33:52;;;;;;;11.63;5.60;;;;;;;18.95;67.58;101923.34;5033786;28;20040;-66
2022/07/07 00:36:18;;;;;;;9.27;5.97;;;;;;;18.92;67.91;101915.31;5034301;28;20449;-66
2022/07/07 00:38:43;;;;;;;9.52;6.20;;;;;;;18.89;68.11;101921.59;5034147;28;20029;-66
2022/07/07 00:41:09;;;;;;;10.32;6.05;;;;;;;18.89;68.24;101918.94;5034230;28;20029;-66
2022/07/07 00:43:39;;;;;;;10.43;5.93;;;;;;;18.88;68.21;101919.81;5033785;28;20479;-66
2022/07/07 00:46:04;;;;;;;10.68;5.78;;;;;;;18.94;67.79;101918.91;5033782;28;20084;-66
2022/07/07 00:48:32;;;;;;;7.22;5.35;;;;;;;18.95;67.78;101923.34;5033941;28;20030;-66
2022/07/07 00:50:58;;;;;;;10.13;5.60;;;;;;;18.96;67.92;101917.09;5033704;28;20032;-66
2022/07/07 00:53:24;;;;;;;8.02;5.60;;;;;;;18.95;67.92;101907.28;5033625;28;20022;-66
2022/07/07 00:55:49;;;;;;;8.18;5.47;;;;;;;18.90;68.05;101904.63;5033492;28;20026;-66
2022/07/07 00:58:15;;;;;;;9.07;5.60;;;;;;;18.94;67.57;101905.50;5033614;28;20375;-66
2022/07/07 01:00:41;;;;;;;10.90;5.90;;;;;;;18.97;67.91;101903.69;5033420;28;20079;-66
2022/07/07 01:03:08;;;;;;;8.88;5.28;;;;;;;18.99;67.07;101901.00;5031373;28;20030;-66
2022/07/07 01:05:36;;;;;;;9.18;5.55;;;;;;;18.95;67.78;101900.13;5033642;28;20037;-65
2022/07/07 01:08:03;;;;;;;9.50;5.43;;;;;;;18.98;68.00;101902.78;5033091;28;20124;-65
2022/07/07 01:10:28;;;;;;;10.85;5.40;;;;;;;19.01;67.43;101904.53;5033430;28;20031;-66
2022/07/07 01:12:54;;;;;;;8.93;5.03;;;;;;;19.00;67.41;101906.31;5031929;28;20029;-65
2022/07/07 01:15:19;;;;;;;9.13;5.45;;;;;;;18.99;68.24;101904.56;5033386;28;20025;-65
2022/07/07 01:17:45;;;;;;;12.25;5.35;;;;;;;19.00;67.74;101900.09;5033151;28;20176;-66
2022/07/07 01:20:13;;;;;;;12.18;5.20;;;;;;;18.98;67.88;101907.25;5033443;28;20447;-66
2022/07/07 01:22:45;;;;;;;9.45;5.00;;;;;;;18.96;68.54;101906.38;5033365;28;20127;-66
2022/07/07 01:25:10;;;;;;;11.45;5.25;;;;;;;18.94;68.40;101906.38;5033218;28;20029;-66
2022/07/07 01:27:36;;;;;;;6.80;4.90;;;;;;;18.91;68.18;101895.69;5033037;28;20483;-66
2022/07/07 01:30:02;;;;;;;7.65;5.00;;;;;;;18.94;68.18;101893.00;5033266;28;20029;-66
2022/07/07 01:32:27;;;;;;;9.27;5.20;;;;;;;18.97;67.45;101894.75;5033220;28;20433;-66
2022/07/07 01:34:54;;;;;;;8.40;5.00;;;;;;;18.99;68.08;101896.53;5033197;28;20041;-68
2022/07/07 01:37:20;;;;;;;11.38;5.55;;;;;;;18.99;68.47;101884.91;5033084;28;20530;-66
2022/07/07 01:39:47;;;;;;;7.93;5.35;;;;;;;18.98;68.84;101880.47;5032935;28;20028;-66
2022/07/07 01:42:13;;;;;;;10.30;5.68;;;;;;;18.97;68.84;101876.00;5033020;28;20100;-66
2022/07/07 01:44:40;;;;;;;7.85;4.95;;;;;;;18.97;68.73;101884.03;5031516;28;20471;-66
2022/07/07 01:47:06;;;;;;;8.57;5.00;;;;;;;18.95;68.60;101873.34;5032851;28;20057;-66
2022/07/07 01:49:32;;;;;;;9.20;5.35;;;;;;;18.90;69.48;101869.81;5033139;28;20060;-66
2022/07/07 01:51:59;;;;;;;8.88;4.93;;;;;;;18.91;68.77;101878.72;5033120;28;20439;-65
2022/07/07 01:54:26;;;;;;;8.90;5.43;;;;;;;18.88;69.31;101870.72;5032823;28;20084;-66
2022/07/07 01:56:51;;;;;;;8.13;4.80;;;;;;;18.91;68.77;101865.34;5032607;28;20026;-66
2022/07/07 01:59:17;;;;;;;8.55;5.28;;;;;;;18.86;69.12;101868.06;5032723;28;20040;-66
2022/07/07 02:01:43;;;;;;;10.10;5.32;;;;;;;18.89;69.51;101869.84;5032829;28;20065;-66
2022/07/07 02:04:09;;;;;;;6.57;4.68;;;;;;;18.91;69.23;101870.69;5033057;28;20037;-65
2022/07/07 02:06:34;;;;;;;9.25;5.38;;;;;;;18.89;69.78;101873.41;5032640;28;20048;-66
2022/07/07 02:09:00;;;;;;;9.68;5.28;;;;;;;18.91;69.29;101871.56;5032913;28;20440;-66
2022/07/07 02:11:28;;;;;;;7.60;5.00;;;;;;;18.94;69.56;101876.03;5032783;28;20468;-65
2022/07/07 02:13:54;;;;;;;11.73;5.32;;;;;;;18.90;70.34;101872.50;5054943;22;20501;-64
2022/07/07 02:16:22;;;;;;;7.78;5.38;;;;;;;18.92;69.85;101868.00;5036674;28;20032;-64
2022/07/07 02:18:49;;;;;;;9.02;4.72;;;;;;;18.93;70.35;101871.59;5036545;28;20481;-64
2022/07/07 02:21:15;;;;;;;12.07;5.38;;;;;;;18.91;70.49;101862.66;5036514;28;20033;-64
2022/07/07 02:23:44;;;;;;;11.45;5.30;;;;;;;18.91;70.51;101865.34;5036342;28;20041;-64
2022/07/07 02:26:09;;;;;;;6.97;4.80;;;;;;;18.90;70.18;101860.88;5036136;28;20027;-64
2022/07/07 02:28:35;;;;;;;9.70;4.75;;;;;;;18.87;70.68;101864.47;5036271;28;20116;-66
2022/07/07 02:31:00;;;;;;;9.80;4.78;;;;;;;18.83;70.97;101856.47;5036309;28;20034;-64
2022/07/07 02:33:26;;;;;;;9.48;4.80;;;;;;;18.85;71.20;101858.25;5036396;28;20030;-64
2022/07/07 02:35:54;;;;;;;13.35;4.95;;;;;;;18.89;71.03;101859.13;5036172;28;20076;-64
2022/07/07 02:38:22;;;;;;;8.30;4.30;;;;;;;18.89;70.69;101851.97;5036146;28;20029;-64
2022/07/07 02:40:47;;;;;;;10.27;4.15;;;;;;;18.91;70.50;101843.91;5035982;28;20446;-64
2022/07/07 02:43:13;;;;;;;10.13;4.10;;;;;;;18.93;70.69;101850.16;5036031;28;20080;-64
2022/07/07 02:45:42;;;;;;;8.10;4.10;;;;;;;18.90;71.14;101856.41;5036048;28;20036;-64
2022/07/07 02:48:10;;;;;;;6.43;4.03;;;;;;;18.88;71.26;101862.66;5036238;28;20029;-64
2022/07/07 02:50:36;;;;;;;7.60;3.83;;;;;;;18.90;71.14;101853.75;5036119;28;20045;-64
2022/07/07 02:53:02;;;;;;;7.15;3.70;;;;;;;18.91;70.93;101859.97;5034610;28;20072;-64
2022/07/07 02:55:28;;;;;;;5.53;3.63;;;;;;;18.94;70.82;101850.13;5035845;28;20075;-64
2022/07/07 02:57:54;;;;;;;6.43;3.85;;;;;;;18.97;70.53;101850.13;5051310;28;20051;-64
2022/07/07 03:00:19;;;;;;;8.48;3.83;;;;;;;18.98;70.88;101867.09;5035895;28;20030;-64
2022/07/07 03:02:46;;;;;;;11.70;3.88;;;;;;;19.03;70.94;101862.56;5035717;28;20033;-64
2022/07/07 03:05:12;;;;;;;5.32;3.45;;;;;;;19.08;70.47;101854.50;5034488;28;20087;-64
2022/07/07 03:07:38;;;;;;;6.43;3.58;;;;;;;19.08;70.67;101859.84;5034810;28;20364;-64
2022/07/07 03:10:06;;;;;;;7.28;2.95;;;;;;;19.07;70.38;101861.66;5035126;28;20083;-64
2022/07/07 03:12:31;;;;;;;5.82;3.28;;;;;;;19.03;71.00;101859.88;5050889;28;20088;-64
2022/07/07 03:14:56;;;;;;;7.63;3.20;;;;;;;18.97;71.89;101858.16;5017724;28;20061;-64
2022/07/07 03:17:22;;;;;;;6.20;2.90;;;;;;;18.96;72.25;101868.88;5034782;28;20104;-64
2022/07/07 03:19:49;;;;;;;6.07;3.03;;;;;;;18.94;72.01;101876.91;5034048;28;20443;-64
2022/07/07 03:22:15;;;;;;;5.47;2.65;;;;;;;18.97;72.33;101874.22;5034158;28;20026;-64
2022/07/07 03:24:40;;;;;;;6.75;3.33;;;;;;;18.90;72.33;101872.50;5035431;28;20034;-64
2022/07/07 03:27:06;;;;;;;5.90;2.70;;;;;;;18.85;72.56;101873.44;5033185;28;20398;-64
2022/07/07 03:29:31;;;;;;;3.38;2.45;;;;;;;18.80;72.18;101877.91;5035232;28;20364;-64
2022/07/07 03:31:57;;;;;;;5.88;2.30;;;;;;;18.75;71.80;101873.47;5033808;28;20075;-64
2022/07/07 03:34:23;;;;;;;9.65;2.50;;;;;;;18.59;72.42;101876.25;5035183;28;20132;-64
2022/07/07 03:36:48;;;;;;;5.28;2.30;;;;;;;18.45;73.58;101879.84;5035258;28;20021;-64
2022/07/07 03:39:14;;;;;;;5.50;2.50;;;;;;;18.40;74.06;101881.69;5035141;28;20034;-64
2022/07/07 03:41:39;;;;;;;4.10;2.40;;;;;;;18.38;74.30;101875.47;5035026;28;20387;-64
2022/07/07 03:44:05;;;;;;;4.75;2.40;;;;;;;18.34;73.94;101871.00;5035040;28;20056;-64
2022/07/07 03:46:30;;;;;;;3.60;2.25;;;;;;;18.29;74.32;101875.50;5035010;28;20018;-65
2022/07/07 03:48:56;;;;;;;5.18;2.60;;;;;;;18.27;74.75;101883.53;5034800;28;20025;-65
2022/07/07 03:51:22;;;;;;;4.15;2.42;;;;;;;18.25;74.99;101882.66;5034939;28;20075;-65
2022/07/07 03:53:47;;;;;;;6.13;2.75;;;;;;;18.17;75.82;101873.75;5034626;28;20033;-65
2022/07/07 03:56:13;;;;;;;5.03;2.70;;;;;;;18.15;76.00;101867.50;5034370;28;20029;-65
2022/07/07 03:58:38;;;;;;;3.65;2.50;;;;;;;18.12;76.08;101872.00;5034667;28;20028;-65
2022/07/07 04:01:04;;;;;;;5.18;2.53;;;;;;;18.12;76.26;101872.00;5034836;28;20390;-65
2022/07/07 04:03:29;;;;;;;4.30;2.90;;;;;;;18.11;76.30;101872.88;5034951;28;20150;-65
2022/07/07 04:05:55;;;;;;;6.60;2.70;;;;;;;18.09;76.51;101869.34;5034649;28;20393;-65
2022/07/07 04:08:20;;;;;;;5.70;2.70;;;;;;;18.05;76.99;101871.13;5034638;28;20108;-65
2022/07/07 04:10:45;;;;;;;6.57;2.67;;;;;;;18.02;76.64;101863.13;5034332;28;20025;-65
2022/07/07 04:13:11;;;;;;;3.80;2.60;;;;;;;18.04;76.33;101863.13;5034240;28;20080;-64
2022/07/07 04:15:36;;;;;;;5.07;2.70;;;;;;;18.01;76.65;101847.97;5034616;28;20032;-64
2022/07/07 04:18:02;;;;;;;4.18;2.58;;;;;;;18.07;76.30;101853.28;5034694;28;20022;-65
2022/07/07 04:20:29;;;;;;;5.47;2.65;;;;;;;18.08;77.38;101848.84;5034558;28;20022;-65
2022/07/07 04:22:55;;;;;;;3.80;2.40;;;;;;;18.06;76.89;101850.63;5034221;28;20038;-66
2022/07/07 04:25:21;;;;;;;4.75;2.53;;;;;;;18.02;76.64;101847.06;5033926;28;20034;-65
2022/07/07 04:27:46;;;;;;;3.97;2.70;;;;;;;17.98;77.36;101850.66;5034265;28;20079;-65
2022/07/07 04:30:12;;;;;;;5.15;2.80;;;;;;;18.00;77.33;101854.22;5034155;28;20037;-65
2022/07/07 04:32:38;;;;;;;6.32;2.70;;;;;;;17.99;77.54;101853.34;5034057;28;20021;-65
2022/07/07 04:35:03;;;;;;;5.30;2.80;;;;;;;17.96;77.13;101856.00;5034158;28;20119;-65
2022/07/07 04:37:29;;;;;;;5.15;2.60;;;;;;;17.93;77.71;101861.38;5033998;28;20033;-65
2022/07/07 04:39:54;;;;;;;3.70;2.67;;;;;;;17.89;78.19;101859.59;5033896;28;20026;-65
2022/07/07 04:42:19;;;;;;;8.27;3.00;;;;;;;17.90;78.20;101853.38;5034149;28;20116;-66
2022/07/07 04:44:45;;;;;;;6.57;3.47;;;;;;;17.89;78.51;101869.41;5033931;28;20490;-67
2022/07/07 04:47:10;;;;;;;7.15;3.15;;;;;;;17.89;78.73;101874.75;5033891;28;20026;-67
2022/07/07 04:49:35;;;;;;;5.43;2.85;;;;;;;17.90;78.89;101879.19;5034007;28;20071;-68
2022/07/07 04:52:01;;;;;;;4.97;3.05;;;;;;;17.87;79.38;101881.91;5032705;28;20112;-68
2022/07/07 04:54:26;;;;;;;3.65;2.50;;;;;;;17.77;79.14;101889.03;5033370;28;20060;-69
2022/07/07 04:56:52;;;;;;;6.63;2.67;;;;;;;17.76;79.61;101896.16;5033450;28;20034;-69
2022/07/07 04:59:17;;;;;;;4.75;2.15;;;;;;;17.69;79.54;101886.38;5048994;28;20104;-69
2022/07/07 05:01:43;;;;;;;4.43;2.20;;;;;;;17.65;79.48;101886.38;5032389;28;20061;-69
2022/07/07 05:04:08;;;;;;;5.57;2.13;;;;;;;17.65;80.44;101892.59;5032393;28;20021;-68
2022/07/07 05:06:33;;;;;;;5.53;2.40;;;;;;;17.69;80.10;101891.72;5033609;28;20028;-69
2022/07/07 05:08:59;;;;;;;4.57;2.20;;;;;;;17.68;80.06;101897.03;5033280;28;20437;-69
2022/07/07 05:11:24;;;;;;;4.50;2.10;;;;;;;17.62;79.78;101899.75;5033703;28;20041;-69
2022/07/07 05:13:50;;;;;;;4.38;2.00;;;;;;;17.62;79.17;101900.63;5033215;28;20049;-69
2022/07/07 05:16:15;;;;;;;3.20;2.00;;;;;;;17.66;79.82;101909.53;5033456;28;20028;-68
2022/07/07 05:18:40;;;;;;;4.28;1.90;;;;;;;17.74;79.58;101910.44;5033369;28;20406;-69
2022/07/07 05:21:06;;;;;;;3.42;2.05;;;;;;;17.83;79.31;101906.88;5033270;28;20428;-69
2022/07/07 05:23:32;;;;;;;5.82;2.00;;;;;;;17.80;79.25;101915.78;5033275;28;20099;-69
2022/07/07 05:25:58;;;;;;;5.45;1.90;;;;;;;17.73;78.79;101917.53;5031726;28;20441;-69
2022/07/07 05:28:23;;;;;;;6.63;2.10;;;;;;;17.67;79.33;101932.69;5033189;28;20032;-69
2022/07/07 05:30:49;;;;;;;9.10;2.05;;;;;;;17.71;79.70;101926.44;5033149;28;20109;-69
2022/07/07 05:33:14;;;;;;;6.90;1.85;;;;;;;17.84;79.68;101924.69;5033029;28;20048;-70
2022/07/07 05:35:40;;;;;;;5.00;2.13;;;;;;;17.91;78.51;101923.78;5033056;28;20049;-70
2022/07/07 05:38:05;;;;;;;6.85;2.03;;;;;;;17.98;78.50;101931.75;5033050;28;20026;-70
2022/07/07 05:40:31;;;;;;;6.05;2.05;;;;;;;18.11;77.43;101929.06;5033096;28;20382;-70
2022/07/07 05:42:56;;;;;;;5.38;1.88;;;;;;;18.08;76.97;101929.97;5033070;28;20079;-70
2022/07/07 05:45:22;;;;;;;5.10;2.08;;;;;;;18.11;77.54;101934.41;5033046;28;20068;-70
2022/07/07 05:47:47;;;;;;;6.63;1.95;;;;;;;18.18;77.16;101945.09;5033035;28;20025;-70
2022/07/07 05:50:13;;;;;;;5.65;1.98;;;;;;;18.19;77.00;101956.69;5038231;28;20099;-70
2022/07/07 05:52:39;;;;;;;8.15;2.28;;;;;;;18.21;77.14;101953.13;5039444;28;20490;-70
2022/07/07 05:55:07;;;;;;;6.95;2.13;;;;;;;18.18;76.22;101952.22;5039438;28;20025;-69
2022/07/07 05:57:32;;;;;;;6.90;2.00;;;;;;;18.16;75.65;101957.59;5039498;28;20109;-70
2022/07/07 05:59:58;;;;;;;8.70;2.30;;;;;;;18.14;77.54;101950.47;5039442;28;20017;-70
2022/07/07 06:02:23;;;;;;;5.05;1.98;;;;;;;18.08;76.92;101969.22;5039483;28;20113;-70
2022/07/07 06:04:48;;;;;;;7.10;2.17;;;;;;;18.04;77.46;101973.69;5039452;28;20061;-70
2022/07/07 06:07:14;;;;;;;5.07;2.10;;;;;;;17.99;78.09;101984.38;5039311;28;20022;-70
2022/07/07 06:09:40;;;;;;;7.95;2.20;;;;;;;17.95;78.00;101977.25;5039198;28;20029;-70
2022/07/07 06:12:06;;;;;;;6.75;2.05;;;;;;;17.88;78.05;101975.47;5039465;28;20428;-70
2022/07/07 06:14:31;;;;;;;8.05;2.28;;;;;;;17.89;78.60;101990.63;5039026;28;20056;-70
2022/07/07 06:16:57;;;;;;;10.23;2.70;;;;;;;18.00;77.50;101991.50;5038523;28;20734;-70
2022/07/07 06:19:22;;;;;;;6.95;2.30;;;;;;;18.08;77.40;102006.66;5038055;28;20486;-70
2022/07/07 06:21:47;;;;;;;9.20;2.25;;;;;;;18.10;76.17;102007.53;5038005;28;20033;-70
2022/07/07 06:24:13;;;;;;;7.50;2.22;;;;;;;18.14;76.00;102009.31;5039014;28;20033;-70
2022/07/07 06:26:38;;;;;;;11.23;2.40;;;;;;;18.13;76.48;102013.78;5038994;28;20398;-70
2022/07/07 06:29:04;;;;;;;10.00;2.30;;;;;;;18.16;75.55;102018.25;5039268;28;20029;-70
2022/07/07 06:31:29;;;;;;;8.93;2.40;;;;;;;18.15;75.42;102020.00;5039195;28;20116;-70
2022/07/07 06:33:55;;;;;;;8.55;2.00;;;;;;;18.20;74.03;102025.34;5037975;28;20421;-70
2022/07/07 06:36:21;;;;;;;8.43;1.98;;;;;;;18.20;74.03;102028.94;5039112;28;20486;-70
2022/07/07 06:38:46;;;;;;;11.27;2.50;;;;;;;18.19;72.41;102026.25;5038982;28;20030;-70
2022/07/07 06:41:12;;;;;;;9.15;2.20;;;;;;;18.23;73.11;102020.88;5039059;28;20398;-70
2022/07/07 06:43:37;;;;;;;9.93;2.50;;;;;;;18.23;72.38;102022.66;5039088;28;20450;-69
2022/07/07 06:46:03;;;;;;;11.90;2.53;;;;;;;18.23;71.59;102034.25;5039048;28;20095;-69
2022/07/07 06:48:28;;;;;;;12.80;2.50;;;;;;;18.29;71.84;102049.44;5039079;28;20105;-69
2022/07/07 06:50:54;;;;;;;10.50;2.42;;;;;;;18.18;71.53;102052.09;5038967;28;20382;-69
2022/07/07 06:53:20;;;;;;;14.48;2.35;;;;;;;18.23;70.58;102046.75;5039014;28;20391;-69
2022/07/07 06:55:45;;;;;;;9.18;2.10;;;;;;;18.05;70.50;102066.41;5038755;28;20025;-69
2022/07/07 06:58:11;;;;;;;8.32;2.00;;;;;;;17.95;70.19;102064.63;5038926;28;20134;-69
2022/07/07 07:00:36;;;;;;;8.27;1.80;;;;;;;17.89;70.67;102053.91;5036678;28;20064;-69
2022/07/07 07:03:02;;;;;;;7.07;2.00;;;;;;;17.89;70.58;102052.13;5035903;28;20037;-69
2022/07/07 07:05:27;;;;;;;6.57;2.20;;;;;;;18.02;70.87;102061.94;5035852;28;20517;-70
2022/07/07 07:07:53;;;;;;;6.47;1.90;;;;;;;18.34;71.14;102061.00;5035605;28;20394;-70
2022/07/07 07:10:18;;;;;;;5.95;1.92;;;;;;;18.56;69.56;102053.81;5033098;28;20515;-69
2022/07/07 07:12:44;;;;;;;6.63;1.80;;;;;;;18.70;67.99;102057.38;5035112;28;20038;-69
2022/07/07 07:15:10;;;;;;;8.95;1.90;;;;;;;18.88;68.00;102066.22;5035413;28;20057;-69
2022/07/07 07:17:36;;;;;;;9.20;2.00;;;;;;;19.06;67.64;102059.88;5035145;28;20029;-69
2022/07/07 07:20:03;;;;;;;7.03;2.15;;;;;;;19.31;66.13;102069.56;5035462;28;20029;-69
2022/07/07 07:22:35;;;;;;;7.03;2.15;;;;;;;19.69;65.93;102064.00;5035061;28;20028;-68
2022/07/07 07:25:00;;;;;;;8.05;2.08;;;;;;;19.98;64.53;102069.13;5034038;28;20410;-68
2022/07/07 07:27:26;;;;;;;5.70;1.58;;;;;;;20.16;64.50;102065.38;5035062;28;20105;-69
2022/07/07 07:29:51;;;;;;;6.72;2.08;;;;;;;20.54;63.03;102074.88;5035198;28;20102;-68
2022/07/07 07:32:16;;;;;;;5.55;1.98;;;;;;;20.56;62.05;102078.47;5033787;28;20044;-66
2022/07/07 07:34:42;;;;;;;5.38;1.73;;;;;;;20.42;60.55;102080.34;5034904;28;20036;-67
2022/07/07 07:37:07;;;;;;;5.03;1.80;;;;;;;20.19;60.81;102086.84;5034996;28;20447;-66
2022/07/07 07:39:34;;;;;;;7.97;2.05;;;;;;;20.20;61.67;102087.72;5034878;28;20021;-68
2022/07/07 07:41:59;;;;;;;10.93;2.40;;;;;;;20.23;61.77;102098.44;5034817;28;20497;-67
2022/07/07 07:47:08;;;;;;;4.95;2.00;;;;;;;20.69;61.19;102098.00;5035118;28;20044;-64
2022/07/07 07:49:34;;;;;;;7.32;1.80;;;;;;;20.63;59.82;102085.50;5034726;28;20022;-64
2022/07/07 07:51:59;;;;;;;6.85;2.10;;;;;;;20.45;59.51;102102.69;5034969;28;20021;-63
2022/07/07 07:54:24;;;;;;;5.88;2.00;;;;;;;20.39;59.93;102097.41;5035084;28;20397;-64
2022/07/07 07:56:50;;;;;;;7.15;2.30;;;;;;;20.44;59.93;102095.53;5016753;28;20537;-67
2022/07/07 07:59:15;;;;;;;5.82;2.08;;;;;;;20.38;60.21;102090.22;5034792;28;20029;-67
2022/07/07 08:01:40;;;;;;;8.35;2.10;;;;;;;20.44;59.39;102100.03;5034859;28;20033;-66
2022/07/07 08:04:06;;;;;;;4.55;1.90;;;;;;;20.56;59.61;102117.84;5034323;28;20025;-66
2022/07/07 08:06:32;;;;;;;7.03;2.10;;;;;;;20.20;62.75;102118.13;5033389;28;20109;-67
2022/07/07 08:08:58;;;;;;;5.95;1.63;;;;;;;19.82;63.14;102113.06;5034486;28;20475;-67
2022/07/07 08:11:23;;;;;;;4.28;1.23;;;;;;;19.56;61.62;102115.00;5034770;28;20049;-67
2022/07/07 08:13:48;;;;;;;4.25;1.40;;;;;;;19.47;62.12;102115.97;5033983;28;20107;-67
2022/07/07 08:16:14;;;;;;;4.10;1.42;;;;;;;19.38;62.34;102119.56;5033512;28;20057;-66
2022/07/07 08:18:39;;;;;;;5.78;1.60;;;;;;;19.38;62.85;102124.06;5034262;28;20100;-67
2022/07/07 08:21:05;;;;;;;5.20;1.90;;;;;;;19.41;63.32;102127.63;5033002;28;20022;-67
2022/07/07 08:23:30;;;;;;;5.05;1.73;;;;;;;19.36;62.40;102134.78;5034630;28;20032;-66
2022/07/07 08:25:56;;;;;;;6.03;1.80;;;;;;;19.43;62.92;102139.19;5034171;28;20470;-66
2022/07/07 08:28:21;;;;;;;11.68;1.90;;;;;;;19.39;62.72;102141.91;5034226;28;20022;-66
2022/07/07 08:30:47;;;;;;;6.25;2.00;;;;;;;19.35;63.31;102134.78;5034322;28;20152;-66
2022/07/07 08:33:12;;;;;;;5.78;1.80;;;;;;;19.37;63.75;102143.72;5034200;28;20390;-66
2022/07/07 08:35:38;;;;;;;5.75;1.50;;;;;;;19.40;62.57;102141.00;5032722;28;20057;-66
2022/07/07 08:38:03;;;;;;;4.35;1.70;;;;;;;19.54;62.69;102141.84;5033881;28;20026;-66
2022/07/07 08:40:29;;;;;;;6.32;1.65;;;;;;;19.67;62.76;102140.91;5033992;28;20038;-66
2022/07/07 08:42:54;;;;;;;4.82;1.65;;;;;;;19.65;61.53;102144.47;5033984;28;20034;-66
2022/07/07 08:45:20;;;;;;;8.35;1.80;;;;;;;19.73;60.66;102142.66;5033863;28;20037;-66
2022/07/07 08:47:45;;;;;;;6.80;1.50;;;;;;;19.93;60.85;102137.16;5033782;28;20029;-66
2022/07/07 08:50:11;;;;;;;4.72;1.50;;;;;;;20.09;59.30;102140.63;5033716;28;20025;-66
2022/07/07 08:52:36;;;;;;;6.63;1.90;;;;;;;20.18;58.77;102138.75;5033524;28;20037;-66
2022/07/07 08:55:03;;;;;;;4.00;1.70;;;;;;;20.43;59.08;102150.16;5034001;28;20112;-66
2022/07/07 08:57:28;;;;;;;7.57;1.77;;;;;;;21.05;58.13;102150.41;5033355;28;20064;-66
2022/07/07 08:59:56;;;;;;;4.10;1.60;;;;;;;21.61;56.79;102145.25;5033483;28;20124;-66
2022/07/07 09:02:23;;;;;;;6.28;1.77;;;;;;;22.07;55.74;102152.63;5033723;28;20029;-65
2022/07/07 09:04:50;;;;;;;11.07;1.90;;;;;;;22.37;53.58;102152.13;5033414;28;20033;-66
2022/07/07 09:07:15;;;;;;;7.82;2.00;;;;;;;22.56;53.01;102139.22;5033573;28;20552;-66
2022/07/07 09:09:46;;;;;;;5.50;1.67;;;;;;;22.49;53.33;102161.81;5033513;28;20119;-66
2022/07/07 09:12:14;;;;;;;5.95;1.90;;;;;;;22.25;53.45;102160.41;5033967;28;20040;-66
2022/07/07 09:14:51;;;;;;;5.75;1.85;;;;;;;21.89;54.29;102165.47;5033074;28;20098;-66
2022/07/07 09:17:24;;;;;;;6.55;1.88;;;;;;;21.61;54.46;102169.44;5049013;28;20056;-66
2022/07/07 09:20:12;;;;;;;6.35;1.83;;;;;;;21.33;54.97;102182.41;5033392;28;20104;-66
2022/07/07 09:22:51;;;;;;;4.70;1.77;;;;;;;21.11;56.29;102182.63;5033248;28;20608;-66
2022/07/07 09:25:27;;;;;;;6.03;1.70;;;;;;;21.04;56.55;102180.91;5032453;28;20057;-65
2022/07/07 09:28:06;;;;;;;7.55;1.70;;;;;;;21.12;55.95;102184.41;5032099;28;20022;-66
2022/07/07 09:30:40;;;;;;;7.60;1.73;;;;;;;20.96;56.49;102182.78;5033287;28;20452;-65
2022/07/07 09:33:19;;;;;;;4.68;1.70;;;;;;;20.86;56.79;102187.38;5033101;28;20508;-66
2022/07/07 09:38:32;;;;;;;6.68;1.98;;;;;;;20.69;57.50;102203.66;5033480;28;20040;-66
2022/07/07 09:41:08;;;;;;;4.47;1.40;;;;;;;20.57;57.30;102198.41;5033053;28;20175;-65
2022/07/07 09:43:53;;;;;;;5.80;1.60;;;;;;;20.62;57.17;102207.28;5033027;28;20508;-65
2022/07/07 09:46:29;;;;;;;6.07;1.80;;;;;;;20.67;57.69;102215.31;5032959;28;20478;-66
2022/07/07 09:48:58;;;;;;;8.18;1.63;;;;;;;20.83;57.24;102216.94;5032830;28;20439;-65
2022/07/07 09:51:33;;;;;;;8.23;1.73;;;;;;;20.96;56.89;102217.72;5033215;28;20442;-65
2022/07/07 09:54:14;;;;;;;5.18;1.63;;;;;;;21.02;56.83;102228.38;5032682;28;20040;-65
2022/07/07 09:56:47;;;;;;;6.60;1.88;;;;;;;21.07;56.55;102220.28;5032554;28;20025;-65
2022/07/07 09:59:15;;;;;;;6.63;1.60;;;;;;;21.02;57.26;102234.66;5032931;28;20072;-65
2022/07/07 10:01:42;;;;;;;6.88;1.88;;;;;;;20.95;57.34;102232.06;5032798;28;20482;-66
2022/07/07 10:04:10;;;;;;;3.60;1.50;;;;;;;21.01;56.99;102237.38;5031145;28;20029;-65
2022/07/07 10:06:38;;;;;;;3.50;1.40;;;;;;;21.16;56.87;102231.84;5032554;28;20021;-65
2022/07/07 10:09:16;;;;;;;6.75;1.50;;;;;;;21.34;56.19;102237.94;5032534;28;20057;-65
2022/07/07 10:11:44;;;;;;;4.07;1.48;;;;;;;21.50;55.15;102234.16;5032462;28;20036;-66
2022/07/07 10:14:34;;;;;;;4.70;1.33;;;;;;;21.70;55.50;102234.78;5032262;28;20107;-65
2022/07/07 10:17:00;;;;;;;6.45;1.77;;;;;;;21.78;54.84;102249.94;5047949;28;20407;-65
2022/07/07 10:19:26;;;;;;;6.50;1.58;;;;;;;21.64;55.51;102233.97;5032486;28;20103;-65
2022/07/07 10:21:57;;;;;;;3.13;1.63;;;;;;;21.37;56.21;102254.03;5032335;28;20455;-66
2022/07/07 10:24:27;;;;;;;6.60;1.70;;;;;;;21.15;56.39;102253.34;5031262;28;20390;-64
2022/07/07 10:26:57;;;;;;;7.55;1.98;;;;;;;20.87;58.48;102266.19;5032224;28;20035;-65
2022/07/07 10:29:45;;;;;;;4.55;1.80;;;;;;;20.75;58.99;102273.44;5032560;28;20458;-65
2022/07/07 10:32:15;;;;;;;5.05;1.83;;;;;;;20.66;60.73;102278.88;5032257;28;20060;-66
2022/07/07 10:34:49;;;;;;;5.22;1.88;;;;;;;20.65;61.59;102290.53;5032549;28;20040;-66
2022/07/07 10:37:15;;;;;;;5.47;1.67;;;;;;;20.62;62.28;102285.19;5036153;28;20040;-65
2022/07/07 10:39:43;;;;;;;4.78;1.90;;;;;;;20.68;65.24;102286.91;5036297;28;20021;-66
2022/07/07 10:42:20;;;;;;;4.22;1.83;;;;;;;20.88;63.15;102284.97;5036190;28;20382;-65
2022/07/07 10:44:49;;;;;;;5.88;1.88;;;;;;;21.08;62.04;102291.97;5036123;28;20470;-66
2022/07/07 10:47:14;;;;;;;7.30;1.80;;;;;;;21.32;61.41;102285.44;5036168;28;20108;-66
2022/07/07 10:49:45;;;;;;;4.20;1.58;;;;;;;21.41;60.25;102279.97;5036012;28;20101;-66
2022/07/07 10:52:16;;;;;;;5.53;2.00;;;;;;;21.38;59.67;102280.91;5036177;28;20383;-66
2022/07/07 10:54:49;;;;;;;5.07;1.80;;;;;;;21.38;60.14;102288.09;5035944;28;20040;-66
2022/07/07 10:57:20;;;;;;;5.22;1.80;;;;;;;21.42;59.79;102293.41;5035577;28;20030;-66
2022/07/07 10:59:58;;;;;;;4.53;1.58;;;;;;;21.31;58.99;102291.72;5035954;28;20030;-65
2022/07/07 11:02:59;;;;;;;5.35;1.83;;;;;;;21.10;60.95;102309.84;5035858;28;20108;-65
2022/07/07 11:05:30;;;;;;;4.93;2.08;;;;;;;20.86;61.96;102318.16;5026920;28;20045;-66
2022/07/07 11:07:55;;;;;;;3.92;1.70;;;;;;;20.82;63.34;102319.97;5035676;28;20094;-65
2022/07/07 11:10:20;;;;;;;7.07;2.10;;;;;;;20.77;63.56;102319.13;5035698;28;20467;-66
2022/07/07 11:12:50;;;;;;;3.75;1.85;;;;;;;20.75;63.52;102329.84;5035653;28;20025;-66
2022/07/07 11:15:21;;;;;;;3.88;1.80;;;;;;;20.75;63.01;102327.16;5035596;28;20045;-66
2022/07/07 11:17:52;;;;;;;5.80;1.83;;;;;;;20.72;61.87;102328.97;5035654;28;20026;-66
2022/07/07 11:20:24;;;;;;;5.90;1.80;;;;;;;20.72;61.32;102328.97;5035505;28;20022;-66
2022/07/07 11:22:55;;;;;;;6.35;2.00;;;;;;;20.76;61.30;102333.44;5035734;28;20061;-65
2022/07/07 11:25:24;;;;;;;4.78;2.10;;;;;;;20.80;60.74;102337.88;5035184;28;20030;-66
2022/07/07 11:27:51;;;;;;;6.47;2.00;;;;;;;20.87;62.69;102345.00;5035460;28;20040;-67
2022/07/07 11:30:20;;;;;;;5.25;2.10;;;;;;;20.42;64.37;102340.78;5035446;28;20075;-66